Time;durP1;ratioP1;P1;durP2;ratioP2;P2;SDS_P1;SDS_P2;PMS_P1;PMS_P2;Temp;Humidity;BMP_temperature;BMP_pressure;BME280_temperature;BME280_humidity;BME280_pressure;Samples;Min_cycle;Max_cycle;Signal;HPM_P1;HPM_P2
2022/08/31 00:04:46;;;;;;;2.95;1.20;;;;;;;;;;5032402;28;20475;-63
2022/08/31 00:07:12;;;;;;;3.30;1.40;;;;;;;;;;5032914;28;20034;-64
2022/08/31 00:09:37;;;;;;;3.95;1.73;;;;;;;;;;5032901;28;20419;-68
2022/08/31 00:12:03;;;;;;;3.40;1.30;;;;;;;;;;5032843;28;20587;-65
2022/08/31 00:14:29;;;;;;;6.55;1.40;;;;;;;;;;5032799;28;20109;-64
2022/08/31 00:16:55;;;;;;;4.97;1.30;;;;;;;;;;5032784;28;20057;-64
2022/08/31 00:19:21;;;;;;;3.83;1.20;;;;;;;;;;5031571;28;20115;-64
2022/08/31 00:21:46;;;;;;;4.05;1.20;;;;;;;;;;5029528;28;20150;-64
2022/08/31 00:24:13;;;;;;;4.28;1.58;;;;;;;;;;5031230;28;20036;-63
2022/08/31 00:26:39;;;;;;;1.73;1.20;;;;;;;;;;5031194;28;20160;-63
2022/08/31 00:29:06;;;;;;;3.42;1.40;;;;;;;;;;5030788;28;20104;-70
2022/08/31 00:31:31;;;;;;;3.38;1.30;;;;;;;;;;5029966;28;20032;-65
2022/08/31 00:33:57;;;;;;;6.03;1.60;;;;;;;;;;5030992;28;20023;-64
2022/08/31 00:36:25;;;;;;;4.57;1.70;;;;;;;;;;5022688;28;20388;-66
2022/08/31 00:38:51;;;;;;;3.35;1.40;;;;;;;;;;5019592;28;20038;-67
2022/08/31 00:41:20;;;;;;;5.88;1.70;;;;;;;;;;5031096;28;20025;-63
2022/08/31 00:43:53;;;;;;;3.88;1.73;;;;;;;;;;5026957;28;20045;-69
2022/08/31 00:46:29;;;;;;;5.63;1.52;;;;;;;;;;5029859;28;20388;-64
2022/08/31 00:48:58;;;;;;;5.38;1.55;;;;;;;;;;5029365;28;20022;-66
2022/08/31 00:51:25;;;;;;;4.50;1.90;;;;;;;;;;5030997;28;20025;-71
2022/08/31 00:53:51;;;;;;;4.35;1.60;;;;;;;;;;5031008;28;20087;-64
2022/08/31 00:56:17;;;;;;;3.42;1.60;;;;;;;;;;5031142;28;20021;-64
2022/08/31 00:58:44;;;;;;;3.72;1.67;;;;;;;;;;5022492;28;20025;-65
2022/08/31 01:01:12;;;;;;;5.57;1.83;;;;;;;;;;5020614;28;20505;-65
2022/08/31 01:03:38;;;;;;;3.22;1.83;;;;;;;;;;5020274;28;20057;-68
2022/08/31 01:06:03;;;;;;;4.60;1.70;;;;;;;;;;5030593;28;20407;-70
2022/08/31 01:08:29;;;;;;;4.07;1.55;;;;;;;;;;5030958;28;20068;-64
2022/08/31 01:10:55;;;;;;;6.03;1.60;;;;;;;;;;5030799;28;20021;-70
2022/08/31 01:13:21;;;;;;;5.93;1.77;;;;;;;;;;5030855;28;20094;-69
2022/08/31 01:15:54;;;;;;;4.57;1.77;;;;;;;;;;5028181;28;20068;-69
2022/08/31 01:18:22;;;;;;;4.50;1.50;;;;;;;;;;5030599;28;20033;-66
2022/08/31 01:20:50;;;;;;;3.67;1.67;;;;;;;;;;5028663;28;20026;-69
2022/08/31 01:23:21;;;;;;;4.07;1.70;;;;;;;;;;5031941;28;20103;-69
2022/08/31 01:25:48;;;;;;;5.45;1.90;;;;;;;;;;5032403;28;20028;-70
2022/08/31 01:28:14;;;;;;;3.92;1.58;;;;;;;;;;5032402;28;20409;-68
2022/08/31 01:30:41;;;;;;;6.13;1.58;;;;;;;;;;5032207;28;20030;-68
2022/08/31 01:33:08;;;;;;;3.28;1.48;;;;;;;;;;5031888;28;20037;-70
2022/08/31 01:35:34;;;;;;;3.17;1.30;;;;;;;;;;5032188;28;20045;-68
2022/08/31 01:38:01;;;;;;;5.53;1.90;;;;;;;;;;5032266;28;20032;-64
2022/08/31 01:40:36;;;;;;;6.80;2.00;;;;;;;;;;5031944;28;20029;-68
2022/08/31 01:43:01;;;;;;;6.30;1.90;;;;;;;;;;5031669;28;20152;-70
2022/08/31 01:45:28;;;;;;;2.88;1.67;;;;;;;;;;5035235;28;20104;-69
2022/08/31 01:47:53;;;;;;;3.75;1.90;;;;;;;;;;5035539;28;20449;-70
2022/08/31 01:50:19;;;;;;;4.32;1.95;;;;;;;;;;5035478;28;20057;-70
2022/08/31 01:52:44;;;;;;;4.55;2.00;;;;;;;;;;5035391;28;20078;-67
2022/08/31 01:55:10;;;;;;;7.38;2.35;;;;;;;;;;5035698;28;20068;-67
2022/08/31 01:57:35;;;;;;;3.20;1.77;;;;;;;;;;5035570;28;20030;-70
2022/08/31 02:00:06;;;;;;;4.25;1.80;;;;;;;;;;5035547;28;20041;-69
2022/08/31 02:02:31;;;;;;;3.80;1.70;;;;;;;;;;5034150;28;20021;-70
2022/08/31 02:04:57;;;;;;;4.15;1.83;;;;;;;;;;5035394;28;20040;-69
2022/08/31 02:07:24;;;;;;;3.80;1.85;;;;;;;;;;5035511;28;20021;-68
2022/08/31 02:09:49;;;;;;;4.25;2.20;;;;;;;;;;5035182;28;20120;-70
2022/08/31 02:12:15;;;;;;;3.20;2.03;;;;;;;;;;5035375;28;20064;-67
2022/08/31 02:14:40;;;;;;;3.03;1.73;;;;;;;;;;5035000;28;20381;-69
2022/08/31 02:17:07;;;;;;;3.15;1.70;;;;;;;;;;5035103;28;20034;-70
2022/08/31 02:19:33;;;;;;;3.25;1.83;;;;;;;;;;5034952;28;20041;-70
2022/08/31 02:21:58;;;;;;;3.40;1.80;;;;;;;;;;5034661;28;20029;-69
2022/08/31 02:24:24;;;;;;;3.85;2.50;;;;;;;;;;5034909;28;20431;-70
2022/08/31 02:26:50;;;;;;;6.13;2.67;;;;;;;;;;5035057;28;20480;-69
2022/08/31 02:29:16;;;;;;;11.10;2.35;;;;;;;;;;5033492;28;20029;-68
2022/08/31 02:31:42;;;;;;;4.43;2.42;;;;;;;;;;5034814;28;20112;-69
2022/08/31 02:34:08;;;;;;;3.55;1.83;;;;;;;;;;5034880;28;20064;-70
2022/08/31 02:36:33;;;;;;;5.82;1.98;;;;;;;;;;5034828;28;20022;-70
2022/08/31 02:38:59;;;;;;;5.68;1.90;;;;;;;;;;5034704;28;20033;-70
2022/08/31 02:41:25;;;;;;;2.53;1.77;;;;;;;;;;5034603;28;20155;-67
2022/08/31 02:43:50;;;;;;;5.85;2.13;;;;;;;;;;5047281;28;20078;-65
2022/08/31 02:46:16;;;;;;;6.75;2.33;;;;;;;;;;5054614;28;20103;-66
2022/08/31 02:48:41;;;;;;;8.00;2.30;;;;;;;;;;5054522;28;20025;-70
2022/08/31 02:51:09;;;;;;;10.02;2.92;;;;;;;;;;5054387;28;20384;-69
2022/08/31 02:53:36;;;;;;;11.88;2.30;;;;;;;;;;5054371;28;20037;-64
2022/08/31 02:56:02;;;;;;;7.20;2.22;;;;;;;;;;5053387;28;20082;-65
2022/08/31 02:58:28;;;;;;;3.50;2.15;;;;;;;;;;5054036;28;20537;-66
2022/08/31 03:00:54;;;;;;;3.65;2.40;;;;;;;;;;5054259;28;20036;-66
2022/08/31 03:03:20;;;;;;;9.23;3.90;;;;;;;;;;5054186;28;20082;-65
2022/08/31 03:05:46;;;;;;;5.18;2.40;;;;;;;;;;5054028;28;20029;-66
2022/08/31 03:08:12;;;;;;;6.68;2.35;;;;;;;;;;5054151;28;20035;-64
2022/08/31 03:10:38;;;;;;;5.72;2.38;;;;;;;;;;5054021;28;20025;-64
2022/08/31 03:13:04;;;;;;;4.63;2.17;;;;;;;;;;5053746;28;20037;-64
2022/08/31 03:15:29;;;;;;;3.88;2.40;;;;;;;;;;5054118;28;20086;-64
2022/08/31 03:17:55;;;;;;;5.82;2.42;;;;;;;;;;5053801;28;20025;-65
2022/08/31 03:20:23;;;;;;;5.55;2.70;;;;;;;;;;5053743;28;20460;-66
2022/08/31 03:22:49;;;;;;;5.03;2.30;;;;;;;;;;5053912;28;20025;-69
2022/08/31 03:25:16;;;;;;;7.68;2.80;;;;;;;;;;5053604;28;20542;-63
2022/08/31 03:27:42;;;;;;;9.13;3.22;;;;;;;;;;5053312;28;20424;-69
2022/08/31 03:30:11;;;;;;;6.63;2.80;;;;;;;;;;5053575;28;20469;-65
2022/08/31 03:32:37;;;;;;;3.30;2.72;;;;;;;;;;5053592;28;20421;-70
2022/08/31 03:35:04;;;;;;;3.58;2.90;;;;;;;;;;5053500;28;20029;-70
2022/08/31 03:37:30;;;;;;;4.50;3.55;;;;;;;;;;5053595;28;20066;-66
2022/08/31 03:39:56;;;;;;;9.90;4.15;;;;;;;;;;5053439;28;20029;-65
2022/08/31 03:42:22;;;;;;;7.43;3.40;;;;;;;;;;5052867;28;20051;-64
2022/08/31 03:44:47;;;;;;;9.85;5.07;;;;;;;;;;5053272;28;20035;-66
2022/08/31 03:47:13;;;;;;;7.85;4.95;;;;;;;;;;5053262;28;20021;-64
2022/08/31 03:49:39;;;;;;;7.03;4.53;;;;;;;;;;5053333;28;20029;-65
2022/08/31 03:52:05;;;;;;;6.35;4.30;;;;;;;;;;5053199;28;20464;-70
2022/08/31 03:54:31;;;;;;;11.27;3.70;;;;;;;;;;5053152;28;20036;-65
2022/08/31 03:56:56;;;;;;;5.10;3.97;;;;;;;;;;5052851;28;20029;-65
2022/08/31 03:59:22;;;;;;;6.47;3.92;;;;;;;;;;5052644;28;20025;-64
2022/08/31 04:01:47;;;;;;;14.95;3.88;;;;;;;;;;5052824;28;20049;-69
2022/08/31 04:04:13;;;;;;;6.32;3.55;;;;;;;;;;5052890;28;20033;-64
2022/08/31 04:06:40;;;;;;;7.75;3.58;;;;;;;;;;5052473;28;20043;-65
2022/08/31 04:09:06;;;;;;;7.53;3.60;;;;;;;;;;5052901;28;20021;-68
2022/08/31 04:11:32;;;;;;;9.52;2.90;;;;;;;;;;5052709;28;20036;-64
2022/08/31 04:13:57;;;;;;;9.02;3.20;;;;;;;;;;5052855;28;20074;-65
2022/08/31 04:16:23;;;;;;;6.78;2.97;;;;;;;;;;5052798;28;20353;-65
2022/08/31 04:18:49;;;;;;;5.95;2.90;;;;;;;;;;5052797;28;20025;-66
2022/08/31 04:21:23;;;;;;;6.20;2.83;;;;;;;;;;5052372;28;20035;-69
2022/08/31 04:23:49;;;;;;;6.32;2.85;;;;;;;;;;5052415;28;20478;-65
2022/08/31 04:26:18;;;;;;;7.70;3.40;;;;;;;;;;5052543;28;20036;-68
2022/08/31 04:28:43;;;;;;;6.28;3.75;;;;;;;;;;5052446;28;20027;-69
2022/08/31 04:31:08;;;;;;;6.07;3.38;;;;;;;;;;5052774;28;20100;-67
2022/08/31 04:33:38;;;;;;;5.80;2.80;;;;;;;;;;5052561;28;20090;-68
2022/08/31 04:36:09;;;;;;;7.18;2.67;;;;;;;;;;5052737;28;20057;-67
2022/08/31 04:38:35;;;;;;;5.10;2.80;;;;;;;;;;5052344;28;20111;-68
2022/08/31 04:41:08;;;;;;;6.22;2.60;;;;;;;;;;5052417;28;20519;-70
2022/08/31 04:43:35;;;;;;;5.55;2.50;;;;;;;;;;5052275;28;20068;-70
2022/08/31 04:46:02;;;;;;;7.13;2.72;;;;;;;;;;5052470;28;20040;-71
2022/08/31 04:48:28;;;;;;;8.70;2.97;;;;;;;;;;5052376;28;20029;-67
2022/08/31 04:51:07;;;;;;;8.30;3.70;;;;;;;;;;5052442;28;20029;-70
2022/08/31 04:53:35;;;;;;;12.10;6.10;;;;;;;;;;5052415;28;20357;-69
2022/08/31 04:56:19;;;;;;;17.77;7.57;;;;;;;;;;5052030;28;20083;-65
2022/08/31 04:58:51;;;;;;;9.82;7.72;;;;;;;;;;5052145;28;20107;-64
2022/08/31 05:01:19;;;;;;;13.07;8.43;;;;;;;;;;5052266;28;20108;-67
2022/08/31 05:03:49;;;;;;;11.77;8.13;;;;;;;;;;5052049;28;20049;-69
2022/08/31 05:06:16;;;;;;;9.90;7.75;;;;;;;;;;5052377;28;20032;-70
2022/08/31 05:08:42;;;;;;;11.73;7.20;;;;;;;;;;5051774;28;20063;-64
2022/08/31 05:11:17;;;;;;;9.50;6.50;;;;;;;;;;5052108;28;20033;-65
2022/08/31 05:13:43;;;;;;;10.25;6.30;;;;;;;;;;5052184;28;20036;-64
2022/08/31 05:16:11;;;;;;;10.90;6.80;;;;;;;;;;5052236;28;20025;-65
2022/08/31 05:18:41;;;;;;;11.57;6.13;;;;;;;;;;5052704;28;20368;-69
2022/08/31 05:21:27;;;;;;;14.45;6.38;;;;;;;;;;5056047;28;20115;-68
2022/08/31 05:23:57;;;;;;;8.73;5.22;;;;;;;;;;5055688;28;20492;-63
2022/08/31 05:26:26;;;;;;;10.63;5.50;;;;;;;;;;5056094;28;20053;-66
2022/08/31 05:28:52;;;;;;;12.30;7.60;;;;;;;;;;5055956;28;20384;-64
2022/08/31 05:31:17;;;;;;;11.40;5.53;;;;;;;;;;5055762;28;20025;-65
2022/08/31 05:33:43;;;;;;;13.00;5.72;;;;;;;;;;5055757;28;20470;-64
2022/08/31 05:36:10;;;;;;;10.93;4.95;;;;;;;;;;5055813;28;20103;-68
2022/08/31 05:38:36;;;;;;;10.18;4.50;;;;;;;;;;5055407;28;20379;-64
2022/08/31 05:41:04;;;;;;;13.30;4.50;;;;;;;;;;5055570;28;20021;-65
2022/08/31 05:43:31;;;;;;;7.35;3.95;;;;;;;;;;5055339;28;20084;-64
2022/08/31 05:45:57;;;;;;;9.40;3.83;;;;;;;;;;5055580;28;20097;-64
2022/08/31 05:48:23;;;;;;;12.88;4.13;;;;;;;;;;5055389;28;20037;-67
2022/08/31 05:50:49;;;;;;;12.38;4.32;;;;;;;;;;5055536;28;20025;-66
2022/08/31 05:53:14;;;;;;;11.95;5.25;;;;;;;;;;5055223;28;20040;-65
2022/08/31 05:55:41;;;;;;;14.05;4.32;;;;;;;;;;5055444;28;20020;-69
2022/08/31 05:58:06;;;;;;;13.77;4.40;;;;;;;;;;5055381;28;20472;-65
2022/08/31 06:00:32;;;;;;;12.23;5.20;;;;;;;;;;5055340;28;20075;-66
2022/08/31 06:02:58;;;;;;;13.75;4.75;;;;;;;;;;5055372;28;20432;-70
2022/08/31 06:05:24;;;;;;;11.80;5.15;;;;;;;;;;5055323;28;20116;-68
2022/08/31 06:07:50;;;;;;;20.52;7.50;;;;;;;;;;5047240;28;20028;-65
2022/08/31 06:10:17;;;;;;;16.05;6.35;;;;;;;;;;5035247;28;20116;-67
2022/08/31 06:12:43;;;;;;;11.75;4.93;;;;;;;;;;5035253;28;20335;-65
2022/08/31 06:15:10;;;;;;;14.27;5.38;;;;;;;;;;5034854;28;20530;-66
2022/08/31 06:17:36;;;;;;;11.73;5.85;;;;;;;;;;5035107;28;20088;-65
2022/08/31 06:20:04;;;;;;;9.77;5.90;;;;;;;;;;5034948;28;20033;-68
2022/08/31 06:22:32;;;;;;;15.00;5.32;;;;;;;;;;5034647;28;20021;-64
2022/08/31 06:24:57;;;;;;;12.98;5.97;;;;;;;;;;5034959;28;20056;-68
2022/08/31 06:27:23;;;;;;;19.27;5.30;;;;;;;;;;5035033;28;20485;-67
2022/08/31 06:29:49;;;;;;;12.25;4.70;;;;;;;;;;5034597;28;20044;-68
2022/08/31 06:32:15;;;;;;;8.60;5.05;;;;;;;;;;5034754;28;20100;-64
2022/08/31 06:34:42;;;;;;;10.80;4.93;;;;;;;;;;5034710;28;20487;-65
2022/08/31 06:37:10;;;;;;;12.30;4.70;;;;;;;;;;5034538;28;20037;-63
2022/08/31 06:39:36;;;;;;;10.75;4.25;;;;;;;;;;5034764;28;20025;-64
2022/08/31 06:42:02;;;;;;;10.38;4.03;;;;;;;;;;5034533;28;20038;-64
2022/08/31 06:44:28;;;;;;;12.75;3.92;;;;;;;;;;5034012;28;20496;-65
2022/08/31 06:46:55;;;;;;;10.93;3.55;;;;;;;;;;5033882;28;20025;-64
2022/08/31 06:49:21;;;;;;;9.57;3.40;;;;;;;;;;5034536;28;20108;-65
2022/08/31 06:51:48;;;;;;;10.13;2.55;;;;;;;;;;5026941;28;20037;-64
2022/08/31 06:54:16;;;;;;;13.27;3.50;;;;;;;;;;5027833;28;20029;-65
2022/08/31 06:56:41;;;;;;;10.10;1.83;;;;;;;;;;5031209;28;20029;-70
2022/08/31 06:59:08;;;;;;;5.75;1.60;;;;;;;;;;5031231;28;20029;-67
2022/08/31 07:01:35;;;;;;;6.15;1.80;;;;;;;;;;5031197;28;20029;-65
2022/08/31 07:04:06;;;;;;;5.13;2.03;;;;;;;;;;5030988;28;20072;-66
2022/08/31 07:06:35;;;;;;;6.03;1.80;;;;;;;;;;5026775;28;20500;-67
2022/08/31 07:09:03;;;;;;;4.90;1.80;;;;;;;;;;5024595;28;20057;-66
2022/08/31 07:11:36;;;;;;;5.32;1.60;;;;;;;;;;5030871;28;20049;-68
2022/08/31 07:14:02;;;;;;;3.40;1.42;;;;;;;;;;5030394;28;20067;-70
2022/08/31 07:16:28;;;;;;;5.07;1.70;;;;;;;;;;5031061;28;20389;-69
2022/08/31 07:18:57;;;;;;;4.80;1.52;;;;;;;;;;5030563;28;20021;-70
2022/08/31 07:21:25;;;;;;;4.67;1.50;;;;;;;;;;5030749;28;20049;-65
2022/08/31 07:23:52;;;;;;;3.53;1.33;;;;;;;;;;5028410;28;20042;-68
2022/08/31 07:26:24;;;;;;;5.40;1.73;;;;;;;;;;5029655;28;20033;-67
2022/08/31 07:28:52;;;;;;;3.10;1.25;;;;;;;;;;5029370;28;20034;-70
2022/08/31 07:31:21;;;;;;;5.97;1.35;;;;;;;;;;5028942;28;20036;-67
2022/08/31 07:33:54;;;;;;;3.92;1.02;;;;;;;;;;5028805;28;20039;-64
2022/08/31 07:36:19;;;;;;;2.15;1.10;;;;;;;;;;5030856;28;20053;-69
2022/08/31 07:44:17;;;;;;;4.75;0.95;;;;;;;;;;5022091;28;20056;-66
2022/08/31 07:46:45;;;;;;;3.67;1.00;;;;;;;;;;5027984;28;20029;-68
2022/08/31 07:49:14;;;;;;;2.65;0.90;;;;;;;;;;5028224;28;20036;-64
2022/08/31 07:51:44;;;;;;;2.20;1.00;;;;;;;;;;5026048;28;20042;-68
2022/08/31 07:54:10;;;;;;;3.03;1.10;;;;;;;;;;5028370;28;20040;-63
2022/08/31 07:56:37;;;;;;;2.03;0.90;;;;;;;;;;5026989;28;20029;-65
2022/08/31 07:59:07;;;;;;;1.90;1.00;;;;;;;;;;5027495;28;20033;-67
2022/08/31 08:01:33;;;;;;;2.17;1.02;;;;;;;;;;5025792;28;20156;-64
2022/08/31 08:04:01;;;;;;;2.20;1.10;;;;;;;;;;5028218;28;20425;-69
2022/08/31 08:06:28;;;;;;;3.80;1.20;;;;;;;;;;5027557;28;20449;-65
2022/08/31 08:08:54;;;;;;;1.48;1.00;;;;;;;;;;5028947;28;20035;-67
2022/08/31 08:11:21;;;;;;;2.03;0.80;;;;;;;;;;5028446;28;20387;-63
2022/08/31 08:13:48;;;;;;;2.80;1.00;;;;;;;;;;5027819;28;20590;-66
2022/08/31 08:16:14;;;;;;;2.85;1.00;;;;;;;;;;5029035;28;20144;-67
2022/08/31 08:18:42;;;;;;;2.30;1.10;;;;;;;;;;5028237;28;20037;-63
2022/08/31 08:21:07;;;;;;;1.58;0.82;;;;;;;;;;5018308;28;20056;-68
2022/08/31 08:23:33;;;;;;;2.15;0.90;;;;;;;;;;5027582;28;20034;-67
2022/08/31 08:26:07;;;;;;;5.82;0.98;;;;;;;;;;5029105;28;20052;-68
2022/08/31 08:28:34;;;;;;;2.30;0.95;;;;;;;;;;5028806;28;20041;-64
2022/08/31 08:31:03;;;;;;;4.35;1.00;;;;;;;;;;5027190;28;20044;-68
2022/08/31 08:33:29;;;;;;;;;;;;;;;;;;5028620;28;20060;-68
2022/08/31 08:36:00;;;;;;;2.88;0.80;;;;;;;;;;5028573;28;19968;-64
2022/08/31 08:38:29;;;;;;;2.03;1.00;;;;;;;;;;5028739;28;20559;-64
2022/08/31 08:40:57;;;;;;;2.17;1.05;;;;;;;;;;5026446;28;20527;-63
2022/08/31 08:43:29;;;;;;;2.78;1.13;;;;;;;;;;5031359;28;20048;-63
2022/08/31 08:45:56;;;;;;;3.25;0.98;;;;;;;;;;5011123;28;20054;-66
2022/08/31 08:48:26;;;;;;;1.30;0.90;;;;;;;;;;5028662;28;20025;-68
2022/08/31 08:50:54;;;;;;;2.85;0.95;;;;;;;;;;5029419;28;20124;-66
2022/08/31 08:53:27;;;;;;;1.83;0.80;;;;;;;;;;5029105;28;20041;-68
2022/08/31 08:55:52;;;;;;;1.73;0.95;;;;;;;;;;5033280;28;20148;-69
2022/08/31 08:58:18;;;;;;;2.65;1.00;;;;;;;;;;5032005;28;20140;-66
2022/08/31 09:00:49;;;;;;;2.85;1.00;;;;;;;;;;5032563;28;20025;-63
2022/08/31 09:03:29;;;;;;;1.85;0.93;;;;;;;;;;5033220;28;20061;-63
2022/08/31 09:06:30;;;;;;;1.95;1.10;;;;;;;;;;5032428;28;20033;-66
2022/08/31 09:09:23;;;;;;;2.40;1.02;;;;;;;;;;4970982;28;20482;-69
2022/08/31 09:12:19;;;;;;;1.95;0.90;;;;;;;;;;4971108;28;20070;-64
2022/08/31 09:15:03;;;;;;;4.65;1.20;;;;;;;;;;4971159;28;20065;-65
2022/08/31 09:17:46;;;;;;;1.33;0.73;;;;;;;;;;4970518;28;20074;-65
2022/08/31 09:20:12;;;;;;;6.50;1.85;;;;;;;;;;4971162;28;20459;-65
2022/08/31 09:22:45;;;;;;;3.08;1.02;;;;;;;;;;4954405;28;20474;-67
2022/08/31 09:25:32;;;;;;;2.17;1.10;;;;;;;;;;4970335;28;20041;-67
2022/08/31 09:28:06;;;;;;;2.38;0.90;;;;;;;;;;4970711;28;20398;-64
2022/08/31 09:30:57;;;;;;;2.80;0.90;;;;;;;;;;4971906;28;20509;-67
2022/08/31 09:33:26;;;;;;;2.33;1.00;;;;;;;;;;4970872;28;20090;-68
2022/08/31 09:35:57;;;;;;;4.40;1.23;;;;;;;;;;4971514;28;20134;-67
2022/08/31 09:38:31;;;;;;;2.72;0.80;;;;;;;;;;4971491;28;20050;-70
2022/08/31 09:40:57;;;;;;;2.35;1.00;;;;;;;;;;4971340;28;20038;-63
2022/08/31 09:43:24;;;;;;;1.25;0.70;;;;;;;;;;5015434;28;20528;-70
2022/08/31 09:45:56;;;;;;;2.85;1.20;;;;;;;;;;5031292;28;20092;-69
2022/08/31 09:48:42;;;;;;;2.10;0.98;;;;;;;;;;5031420;28;20033;-68
2022/08/31 09:51:07;;;;;;;2.92;1.00;;;;;;;;;;5031707;28;20389;-70
2022/08/31 09:56:26;;;;;;;2.90;1.00;;;;;;;;;;5031771;28;20087;-68
2022/08/31 09:59:01;;;;;;;2.05;1.20;;;;;;;;;;5031322;28;20044;-65
2022/08/31 10:01:42;;;;;;;1.98;1.10;;;;;;;;;;5031278;28;20022;-70
2022/08/31 10:04:25;;;;;;;2.17;1.00;;;;;;;;;;5030038;28;20120;-69
2022/08/31 10:07:10;;;;;;;5.43;1.00;;;;;;;;;;5030245;28;21125;-67
2022/08/31 10:09:45;;;;;;;2.42;1.20;;;;;;;;;;5030859;28;20134;-68
2022/08/31 10:12:33;;;;;;;1.85;0.90;;;;;;;;;;5031824;28;20488;-64
2022/08/31 10:15:03;;;;;;;1.85;1.08;;;;;;;;;;5030959;28;20030;-69
2022/08/31 10:17:41;;;;;;;1.27;0.93;;;;;;;;;;5031430;28;20049;-66
2022/08/31 10:20:08;;;;;;;2.13;1.00;;;;;;;;;;5030327;28;20033;-66
2022/08/31 10:22:45;;;;;;;1.60;0.90;;;;;;;;;;5030441;28;20060;-64
2022/08/31 10:25:39;;;;;;;1.63;0.88;;;;;;;;;;5030609;28;20030;-64
2022/08/31 10:28:14;;;;;;;7.82;1.15;;;;;;;;;;5029595;28;20124;-63
2022/08/31 10:30:59;;;;;;;2.38;0.90;;;;;;;;;;5031781;28;20040;-70
2022/08/31 10:36:38;;;;;;;2.35;0.93;;;;;;;;;;5025494;28;20049;-70
2022/08/31 10:39:18;;;;;;;2.28;0.75;;;;;;;;;;5029885;28;20038;-69
2022/08/31 10:41:48;;;;;;;3.42;0.80;;;;;;;;;;5030239;28;20481;-66
2022/08/31 10:44:25;;;;;;;1.30;0.70;;;;;;;;;;5030314;28;20052;-68
2022/08/31 10:46:53;;;;;;;1.98;0.80;;;;;;;;;;5030163;28;20032;-62
2022/08/31 10:49:20;;;;;;;1.77;0.80;;;;;;;;;;5030960;28;20093;-62
2022/08/31 10:52:00;;;;;;;3.40;0.98;;;;;;;;;;5029553;28;20032;-62
2022/08/31 10:54:55;;;;;;;2.90;1.13;;;;;;;;;;5029316;28;20036;-63
2022/08/31 10:57:33;;;;;;;3.10;1.00;;;;;;;;;;5029577;28;20087;-62
2022/08/31 11:00:06;;;;;;;2.38;1.08;;;;;;;;;;5030866;28;20076;-66
2022/08/31 11:02:44;;;;;;;5.97;1.00;;;;;;;;;;5029829;28;20029;-66
2022/08/31 11:05:36;;;;;;;2.13;1.30;;;;;;;;;;5029426;28;20025;-70
2022/08/31 11:08:22;;;;;;;2.65;0.77;;;;;;;;;;5029976;28;20040;-70
2022/08/31 11:10:53;;;;;;;6.95;0.90;;;;;;;;;;5029070;28;20431;-68
2022/08/31 11:13:24;;;;;;;1.60;0.88;;;;;;;;;;5028871;28;20433;-63
2022/08/31 11:16:19;;;;;;;2.13;0.70;;;;;;;;;;5028469;28;20033;-66
2022/08/31 11:18:51;;;;;;;2.63;0.90;;;;;;;;;;4968100;28;20537;-66
2022/08/31 11:21:34;;;;;;;2.05;1.20;;;;;;;;;;4968657;28;20042;-65
2022/08/31 11:24:27;;;;;;;1.70;1.25;;;;;;;;;;4968966;28;20556;-68
2022/08/31 11:27:10;;;;;;;2.22;0.90;;;;;;;;;;4968651;28;20034;-68
2022/08/31 11:29:45;;;;;;;5.25;1.10;;;;;;;;;;4968311;28;20122;-66
2022/08/31 11:32:22;;;;;;;2.08;0.90;;;;;;;;;;4969371;28;20114;-66
2022/08/31 11:34:55;;;;;;;4.72;0.93;;;;;;;;;;4968683;28;20538;-70
2022/08/31 11:37:51;;;;;;;2.10;0.80;;;;;;;;;;4959705;28;20051;-67
2022/08/31 11:40:42;;;;;;;2.95;0.80;;;;;;;;;;4968477;28;20031;-63
2022/08/31 11:43:30;;;;;;;3.65;0.80;;;;;;;;;;4968450;28;20133;-69
2022/08/31 11:46:00;;;;;;;2.20;0.90;;;;;;;;;;4962411;28;20079;-64
2022/08/31 11:48:52;;;;;;;1.52;0.88;;;;;;;;;;4967704;28;20105;-62
2022/08/31 11:51:32;;;;;;;1.55;0.80;;;;;;;;;;4969028;28;20030;-63
2022/08/31 11:54:00;;;;;;;2.67;0.90;;;;;;;;;;4968306;28;20035;-70
2022/08/31 11:56:43;;;;;;;2.85;0.82;;;;;;;;;;5020530;28;20033;-62
2022/08/31 11:59:32;;;;;;;1.00;0.65;;;;;;;;;;5028392;28;20033;-63
2022/08/31 12:02:18;;;;;;;1.92;0.80;;;;;;;;;;5015686;28;20094;-63
2022/08/31 12:04:46;;;;;;;1.15;0.70;;;;;;;;;;5027558;28;20037;-63
2022/08/31 12:07:18;;;;;;;1.95;0.80;;;;;;;;;;5029914;28;20048;-70
2022/08/31 12:10:06;;;;;;;6.05;0.85;;;;;;;;;;5032450;28;20435;-71
2022/08/31 12:12:48;;;;;;;1.92;0.75;;;;;;;;;;5032604;28;20058;-63
2022/08/31 12:15:42;;;;;;;0.70;0.60;;;;;;;;;;5032434;28;20083;-65
2022/08/31 12:18:15;;;;;;;2.97;0.80;;;;;;;;;;5010494;28;20057;-66
2022/08/31 12:24:18;;;;;;;5.80;1.42;;;;;;;;;;4971238;28;20093;-62
2022/08/31 12:26:56;;;;;;;4.68;1.75;;;;;;;;;;4971262;28;20045;-67
2022/08/31 12:29:36;;;;;;;6.30;2.30;;;;;;;;;;4970892;28;20039;-65
2022/08/31 12:32:11;;;;;;;5.32;2.63;;;;;;;;;;4971129;28;20031;-65
2022/08/31 12:34:49;;;;;;;7.35;3.17;;;;;;;;;;4970971;28;20118;-68
2022/08/31 12:37:21;;;;;;;4.85;2.88;;;;;;;;;;4971305;28;20553;-64
2022/08/31 12:39:47;;;;;;;6.05;3.70;;;;;;;;;;4971054;28;20175;-67
2022/08/31 12:42:12;;;;;;;10.18;3.25;;;;;;;;;;4971031;28;20078;-62
2022/08/31 12:44:50;;;;;;;7.03;2.63;;;;;;;;;;4951566;29;20483;-64
2022/08/31 12:47:23;;;;;;;5.80;2.50;;;;;;;;;;4951822;29;20515;-62
2022/08/31 12:50:01;;;;;;;8.18;2.63;;;;;;;;;;4951966;29;20039;-63
2022/08/31 12:53:03;;;;;;;4.03;2.05;;;;;;;;;;4951883;29;20151;-63
2022/08/31 12:55:45;;;;;;;5.65;1.70;;;;;;;;;;4968908;28;20438;-70
2022/08/31 12:58:28;;;;;;;3.92;1.52;;;;;;;;;;4971162;28;20113;-65
2022/08/31 13:01:09;;;;;;;4.80;1.70;;;;;;;;;;4973110;28;20172;-63
2022/08/31 13:03:38;;;;;;;5.47;1.88;;;;;;;;;;4973076;28;20068;-68
2022/08/31 13:06:12;;;;;;;4.07;1.60;;;;;;;;;;4973218;28;20037;-65
2022/08/31 13:08:42;;;;;;;3.90;1.50;;;;;;;;;;4972982;28;20405;-64
2022/08/31 13:11:28;;;;;;;2.38;1.20;;;;;;;;;;4973229;28;20382;-64
2022/08/31 13:14:07;;;;;;;7.47;1.23;;;;;;;;;;4973135;28;20031;-67
2022/08/31 13:16:33;;;;;;;3.47;1.08;;;;;;;;;;4973114;28;20054;-69
2022/08/31 13:19:04;;;;;;;2.63;1.00;;;;;;;;;;4973328;28;20031;-65
2022/08/31 13:21:31;;;;;;;2.22;0.82;;;;;;;;;;4991167;28;20053;-64
2022/08/31 13:24:09;;;;;;;3.20;0.90;;;;;;;;;;4991977;28;20118;-66
2022/08/31 13:26:36;;;;;;;3.15;0.95;;;;;;;;;;4992447;28;20042;-69
2022/08/31 13:29:06;;;;;;;1.92;0.60;;;;;;;;;;4992305;28;20469;-68
2022/08/31 13:31:47;;;;;;;2.85;0.80;;;;;;;;;;4992182;28;20376;-64
2022/08/31 13:34:13;;;;;;;1.33;0.70;;;;;;;;;;4992523;28;20038;-68
2022/08/31 13:36:46;;;;;;;1.95;0.80;;;;;;;;;;4992014;28;20058;-68
2022/08/31 13:39:37;;;;;;;1.38;0.77;;;;;;;;;;4992364;28;20022;-68
2022/08/31 13:42:27;;;;;;;4.13;0.98;;;;;;;;;;4999309;28;20030;-66
2022/08/31 13:45:01;;;;;;;1.60;0.80;;;;;;;;;;5055036;28;20423;-65
2022/08/31 13:47:34;;;;;;;2.95;0.90;;;;;;;;;;5055150;28;20262;-66
2022/08/31 13:50:09;;;;;;;3.22;0.73;;;;;;;;;;5055113;28;20032;-69
2022/08/31 13:52:36;;;;;;;2.22;0.50;;;;;;;;;;5054789;28;20036;-70
2022/08/31 13:55:11;;;;;;;1.05;0.60;;;;;;;;;;5055001;28;20029;-71
2022/08/31 13:57:39;;;;;;;2.47;0.63;;;;;;;;;;5054688;28;20396;-68
2022/08/31 14:00:34;;;;;;;1.33;0.50;;;;;;;;;;5055033;28;20120;-65
2022/08/31 14:03:39;;;;;;;1.02;0.57;;;;;;;;;;5054863;28;20021;-65
2022/08/31 14:06:23;;;;;;;1.13;0.70;;;;;;;;;;5045957;28;20403;-66
2022/08/31 14:09:02;;;;;;;2.78;0.70;;;;;;;;;;5054679;28;20035;-69
2022/08/31 14:11:28;;;;;;;1.90;0.60;;;;;;;;;;5051238;28;20045;-70
2022/08/31 14:14:03;;;;;;;2.35;0.70;;;;;;;;;;5034584;28;20045;-68
2022/08/31 14:16:33;;;;;;;1.17;0.70;;;;;;;;;;5034818;28;20037;-70
2022/08/31 14:18:58;;;;;;;;;;;;;;;;;;5035000;28;20025;-69
2022/08/31 14:21:27;;;;;;;2.30;0.70;;;;;;;;;;5034012;28;20332;-69
2022/08/31 14:24:01;;;;;;;1.90;0.70;;;;;;;;;;5034496;28;20045;-69
2022/08/31 14:26:32;;;;;;;2.15;0.60;;;;;;;;;;5034162;28;20025;-71
2022/08/31 14:29:08;;;;;;;4.45;0.60;;;;;;;;;;5033912;28;20064;-71
2022/08/31 14:31:50;;;;;;;2.08;0.65;;;;;;;;;;5034228;28;20056;-69
2022/08/31 14:34:28;;;;;;;1.17;0.40;;;;;;;;;;5034108;28;20030;-69
2022/08/31 14:37:09;;;;;;;1.65;0.80;;;;;;;;;;5034291;28;20485;-66
2022/08/31 14:39:41;;;;;;;2.58;0.63;;;;;;;;;;5033823;28;20033;-67
2022/08/31 14:42:20;;;;;;;2.33;0.70;;;;;;;;;;5034045;28;20468;-71
2022/08/31 14:44:52;;;;;;;1.58;0.65;;;;;;;;;;5014258;28;20521;-66
2022/08/31 14:47:20;;;;;;;2.72;0.50;;;;;;;;;;5014111;28;20028;-71
2022/08/31 14:49:46;;;;;;;2.42;0.65;;;;;;;;;;5013944;28;20532;-71
2022/08/31 14:52:11;;;;;;;1.73;0.70;;;;;;;;;;5014044;28;20034;-72
2022/08/31 14:54:37;;;;;;;0.88;0.60;;;;;;;;;;5014215;28;20049;-70
2022/08/31 14:57:16;;;;;;;1.63;0.70;;;;;;;;;;5014039;28;20080;-66
2022/08/31 14:59:45;;;;;;;1.55;0.60;;;;;;;;;;5014180;28;20026;-65
2022/08/31 15:02:12;;;;;;;1.95;0.70;;;;;;;;;;5014237;28;20385;-71
2022/08/31 15:04:38;;;;;;;1.98;0.80;;;;;;;;;;5013736;28;20026;-72
2022/08/31 15:07:04;;;;;;;2.80;0.70;;;;;;;;;;5013911;28;20061;-69
2022/08/31 15:09:40;;;;;;;4.95;1.08;;;;;;;;;;5013848;28;20097;-71
2022/08/31 15:12:06;;;;;;;2.67;0.85;;;;;;;;;;5013839;28;20030;-67
2022/08/31 15:14:35;;;;;;;2.03;0.70;;;;;;;;;;5013787;28;20076;-70
2022/08/31 15:17:05;;;;;;;1.85;0.77;;;;;;;;;;5013607;28;20112;-68
2022/08/31 15:19:34;;;;;;;2.47;0.70;;;;;;;;;;5013608;28;20021;-69
2022/08/31 15:22:01;;;;;;;1.50;0.77;;;;;;;;;;5013921;28;20081;-67